sensor_id;sensor_type;location;lat;lon;timestamp;P1;durP1;ratioP1;P2;durP2;ratioP2
48951;SDS011;34758;42.148;24.744;2023-12-20T00:01:11;19.40;;;12.18;;
48951;SDS011;34758;42.148;24.744;2023-12-20T00:03:39;21.67;;;12.70;;
48951;SDS011;34758;42.148;24.744;2023-12-20T00:06:06;22.40;;;12.38;;
48951;SDS011;34758;42.148;24.744;2023-12-20T00:08:34;20.58;;;12.85;;
48951;SDS011;34758;42.148;24.744;2023-12-20T00:11:05;21.40;;;13.15;;
48951;SDS011;34758;42.148;24.744;2023-12-20T00:13:35;22.10;;;13.77;;
48951;SDS011;34758;42.148;24.744;2023-12-20T00:16:04;20.02;;;12.90;;
48951;SDS011;34758;42.148;24.744;2023-12-20T00:18:32;20.98;;;12.52;;
48951;SDS011;34758;42.148;24.744;2023-12-20T00:20:59;21.10;;;13.15;;
48951;SDS011;34758;42.148;24.744;2023-12-20T00:23:29;22.08;;;14.30;;
48951;SDS011;34758;42.148;24.744;2023-12-20T00:25:58;20.52;;;13.90;;
48951;SDS011;34758;42.148;24.744;2023-12-20T00:28:28;24.35;;;15.65;;
48951;SDS011;34758;42.148;24.744;2023-12-20T00:30:55;23.05;;;16.00;;
48951;SDS011;34758;42.148;24.744;2023-12-20T00:33:25;23.23;;;15.00;;
48951;SDS011;34758;42.148;24.744;2023-12-20T00:35:53;24.95;;;16.33;;
48951;SDS011;34758;42.148;24.744;2023-12-20T00:38:20;27.40;;;15.95;;
48951;SDS011;34758;42.148;24.744;2023-12-20T00:40:48;26.35;;;15.02;;
48951;SDS011;34758;42.148;24.744;2023-12-20T00:43:17;21.63;;;14.43;;
48951;SDS011;34758;42.148;24.744;2023-12-20T00:45:46;21.50;;;14.55;;
48951;SDS011;34758;42.148;24.744;2023-12-20T00:48:15;25.00;;;15.65;;
48951;SDS011;34758;42.148;24.744;2023-12-20T00:50:47;23.95;;;16.08;;
48951;SDS011;34758;42.148;24.744;2023-12-20T00:53:17;26.67;;;16.52;;
48951;SDS011;34758;42.148;24.744;2023-12-20T00:55:46;26.25;;;16.05;;
48951;SDS011;34758;42.148;24.744;2023-12-20T00:58:14;25.33;;;16.38;;
48951;SDS011;34758;42.148;24.744;2023-12-20T01:00:41;24.65;;;16.05;;
48951;SDS011;34758;42.148;24.744;2023-12-20T01:03:12;24.38;;;15.27;;
48951;SDS011;34758;42.148;24.744;2023-12-20T01:05:41;22.92;;;15.43;;
48951;SDS011;34758;42.148;24.744;2023-12-20T01:08:09;28.70;;;16.65;;
48951;SDS011;34758;42.148;24.744;2023-12-20T01:10:37;23.08;;;15.25;;
48951;SDS011;34758;42.148;24.744;2023-12-20T01:13:05;23.98;;;14.45;;
48951;SDS011;34758;42.148;24.744;2023-12-20T01:15:34;25.27;;;15.65;;
48951;SDS011;34758;42.148;24.744;2023-12-20T01:18:05;22.55;;;14.38;;
48951;SDS011;34758;42.148;24.744;2023-12-20T01:20:34;27.88;;;15.13;;
48951;SDS011;34758;42.148;24.744;2023-12-20T01:23:02;23.75;;;13.27;;
48951;SDS011;34758;42.148;24.744;2023-12-20T01:25:29;20.90;;;13.90;;
48951;SDS011;34758;42.148;24.744;2023-12-20T01:27:57;22.08;;;13.13;;
48951;SDS011;34758;42.148;24.744;2023-12-20T01:30:25;19.30;;;12.90;;
48951;SDS011;34758;42.148;24.744;2023-12-20T01:32:54;22.48;;;13.43;;
48951;SDS011;34758;42.148;24.744;2023-12-20T01:35:23;17.58;;;11.95;;
48951;SDS011;34758;42.148;24.744;2023-12-20T01:37:55;19.67;;;11.73;;
48951;SDS011;34758;42.148;24.744;2023-12-20T01:40:24;17.40;;;11.18;;
48951;SDS011;34758;42.148;24.744;2023-12-20T01:43:06;24.75;;;11.52;;
48951;SDS011;34758;42.148;24.744;2023-12-20T01:45:35;19.75;;;11.32;;
48951;SDS011;34758;42.148;24.744;2023-12-20T01:48:03;14.90;;;9.20;;
48951;SDS011;34758;42.148;24.744;2023-12-20T01:50:34;13.50;;;9.25;;
48951;SDS011;34758;42.148;24.744;2023-12-20T01:53:05;26.38;;;11.40;;
48951;SDS011;34758;42.148;24.744;2023-12-20T01:55:35;17.70;;;9.80;;
48951;SDS011;34758;42.148;24.744;2023-12-20T01:58:04;27.60;;;14.23;;
48951;SDS011;34758;42.148;24.744;2023-12-20T02:00:32;18.60;;;10.98;;
48951;SDS011;34758;42.148;24.744;2023-12-20T02:03:00;18.80;;;9.75;;
48951;SDS011;34758;42.148;24.744;2023-12-20T02:05:28;18.67;;;9.80;;
48951;SDS011;34758;42.148;24.744;2023-12-20T02:07:56;20.00;;;10.45;;
48951;SDS011;34758;42.148;24.744;2023-12-20T02:10:28;17.77;;;9.93;;
48951;SDS011;34758;42.148;24.744;2023-12-20T02:12:56;20.80;;;11.13;;
48951;SDS011;34758;42.148;24.744;2023-12-20T02:15:25;21.40;;;10.30;;
48951;SDS011;34758;42.148;24.744;2023-12-20T02:17:53;17.17;;;11.27;;
48951;SDS011;34758;42.148;24.744;2023-12-20T02:20:21;19.42;;;10.65;;
48951;SDS011;34758;42.148;24.744;2023-12-20T02:22:50;17.90;;;10.43;;
48951;SDS011;34758;42.148;24.744;2023-12-20T02:25:18;16.67;;;10.18;;
48951;SDS011;34758;42.148;24.744;2023-12-20T02:27:47;16.85;;;9.52;;
48951;SDS011;34758;42.148;24.744;2023-12-20T02:30:17;15.40;;;9.50;;
48951;SDS011;34758;42.148;24.744;2023-12-20T02:32:46;15.05;;;9.60;;
48951;SDS011;34758;42.148;24.744;2023-12-20T02:35:14;16.15;;;10.00;;
48951;SDS011;34758;42.148;24.744;2023-12-20T02:37:42;16.48;;;10.18;;
48951;SDS011;34758;42.148;24.744;2023-12-20T02:40:11;15.32;;;10.30;;
48951;SDS011;34758;42.148;24.744;2023-12-20T02:42:39;15.68;;;10.40;;
48951;SDS011;34758;42.148;24.744;2023-12-20T02:45:07;18.13;;;10.65;;
48951;SDS011;34758;42.148;24.744;2023-12-20T02:47:35;16.48;;;10.02;;
48951;SDS011;34758;42.148;24.744;2023-12-20T02:50:02;16.80;;;10.18;;
48951;SDS011;34758;42.148;24.744;2023-12-20T02:52:31;19.55;;;12.00;;
48951;SDS011;34758;42.148;24.744;2023-12-20T02:54:59;20.77;;;11.40;;
48951;SDS011;34758;42.148;24.744;2023-12-20T02:57:29;20.52;;;10.60;;
48951;SDS011;34758;42.148;24.744;2023-12-20T02:59:58;15.77;;;9.63;;
48951;SDS011;34758;42.148;24.744;2023-12-20T03:02:28;13.10;;;8.88;;
48951;SDS011;34758;42.148;24.744;2023-12-20T03:07:29;14.85;;;8.68;;
48951;SDS011;34758;42.148;24.744;2023-12-20T03:09:57;12.63;;;8.48;;
48951;SDS011;34758;42.148;24.744;2023-12-20T03:12:25;12.80;;;8.82;;
48951;SDS011;34758;42.148;24.744;2023-12-20T03:14:54;13.88;;;8.90;;
48951;SDS011;34758;42.148;24.744;2023-12-20T03:17:22;14.98;;;8.50;;
48951;SDS011;34758;42.148;24.744;2023-12-20T03:19:49;15.82;;;8.95;;
48951;SDS011;34758;42.148;24.744;2023-12-20T03:22:17;13.98;;;8.20;;
48951;SDS011;34758;42.148;24.744;2023-12-20T03:24:44;14.25;;;7.55;;
48951;SDS011;34758;42.148;24.744;2023-12-20T03:27:13;11.40;;;7.43;;
48951;SDS011;34758;42.148;24.744;2023-12-20T03:29:42;12.82;;;7.68;;
48951;SDS011;34758;42.148;24.744;2023-12-20T03:32:13;12.70;;;7.65;;
48951;SDS011;34758;42.148;24.744;2023-12-20T03:34:44;15.25;;;7.25;;
48951;SDS011;34758;42.148;24.744;2023-12-20T03:37:12;12.25;;;7.65;;
48951;SDS011;34758;42.148;24.744;2023-12-20T03:39:40;9.75;;;6.80;;
48951;SDS011;34758;42.148;24.744;2023-12-20T03:42:10;12.65;;;7.35;;
48951;SDS011;34758;42.148;24.744;2023-12-20T03:44:38;13.98;;;7.80;;
48951;SDS011;34758;42.148;24.744;2023-12-20T03:47:06;13.48;;;6.82;;
48951;SDS011;34758;42.148;24.744;2023-12-20T03:49:47;11.82;;;7.03;;
48951;SDS011;34758;42.148;24.744;2023-12-20T03:52:14;15.73;;;9.23;;
48951;SDS011;34758;42.148;24.744;2023-12-20T03:54:42;15.95;;;8.65;;
48951;SDS011;34758;42.148;24.744;2023-12-20T03:57:10;14.32;;;8.93;;
48951;SDS011;34758;42.148;24.744;2023-12-20T03:59:39;15.07;;;9.75;;
48951;SDS011;34758;42.148;24.744;2023-12-20T04:02:06;17.30;;;9.43;;
48951;SDS011;34758;42.148;24.744;2023-12-20T04:04:37;17.10;;;10.45;;
48951;SDS011;34758;42.148;24.744;2023-12-20T04:07:06;18.52;;;10.63;;
48951;SDS011;34758;42.148;24.744;2023-12-20T04:09:34;18.52;;;11.05;;
48951;SDS011;34758;42.148;24.744;2023-12-20T04:12:01;18.95;;;11.32;;
48951;SDS011;34758;42.148;24.744;2023-12-20T04:14:28;18.30;;;10.43;;
48951;SDS011;34758;42.148;24.744;2023-12-20T04:16:59;14.93;;;11.00;;
48951;SDS011;34758;42.148;24.744;2023-12-20T04:19:26;21.35;;;12.75;;
48951;SDS011;34758;42.148;24.744;2023-12-20T04:21:54;20.95;;;13.10;;
48951;SDS011;34758;42.148;24.744;2023-12-20T04:24:23;22.65;;;13.52;;
48951;SDS011;34758;42.148;24.744;2023-12-20T04:26:50;24.67;;;15.27;;
48951;SDS011;34758;42.148;24.744;2023-12-20T04:29:17;24.70;;;15.43;;
48951;SDS011;34758;42.148;24.744;2023-12-20T04:31:44;23.88;;;15.73;;
48951;SDS011;34758;42.148;24.744;2023-12-20T04:34:12;28.13;;;16.83;;
48951;SDS011;34758;42.148;24.744;2023-12-20T04:36:39;23.17;;;14.70;;
48951;SDS011;34758;42.148;24.744;2023-12-20T04:39:08;24.38;;;14.48;;
48951;SDS011;34758;42.148;24.744;2023-12-20T04:41:40;21.45;;;14.48;;
48951;SDS011;34758;42.148;24.744;2023-12-20T04:44:08;26.83;;;14.52;;
48951;SDS011;34758;42.148;24.744;2023-12-20T04:46:38;21.80;;;14.38;;
48951;SDS011;34758;42.148;24.744;2023-12-20T04:49:07;19.48;;;11.93;;
48951;SDS011;34758;42.148;24.744;2023-12-20T04:51:36;22.10;;;13.05;;
48951;SDS011;34758;42.148;24.744;2023-12-20T04:54:04;21.10;;;13.77;;
48951;SDS011;34758;42.148;24.744;2023-12-20T04:56:31;23.80;;;12.63;;
48951;SDS011;34758;42.148;24.744;2023-12-20T04:59:01;21.10;;;12.85;;
48951;SDS011;34758;42.148;24.744;2023-12-20T05:01:28;21.60;;;12.38;;
48951;SDS011;34758;42.148;24.744;2023-12-20T05:03:56;20.67;;;12.73;;
48951;SDS011;34758;42.148;24.744;2023-12-20T05:06:23;21.95;;;14.70;;
48951;SDS011;34758;42.148;24.744;2023-12-20T05:08:51;23.85;;;14.82;;
48951;SDS011;34758;42.148;24.744;2023-12-20T05:11:21;24.20;;;14.13;;
48951;SDS011;34758;42.148;24.744;2023-12-20T05:13:50;22.17;;;13.80;;
48951;SDS011;34758;42.148;24.744;2023-12-20T05:16:19;21.85;;;13.57;;
48951;SDS011;34758;42.148;24.744;2023-12-20T05:18:48;22.05;;;13.43;;
48951;SDS011;34758;42.148;24.744;2023-12-20T05:21:17;21.05;;;13.35;;
48951;SDS011;34758;42.148;24.744;2023-12-20T05:23:45;19.50;;;13.85;;
48951;SDS011;34758;42.148;24.744;2023-12-20T05:26:14;20.10;;;13.20;;
48951;SDS011;34758;42.148;24.744;2023-12-20T05:28:42;21.75;;;13.68;;
48951;SDS011;34758;42.148;24.744;2023-12-20T05:31:09;20.23;;;13.02;;
48951;SDS011;34758;42.148;24.744;2023-12-20T05:33:39;22.17;;;14.18;;
48951;SDS011;34758;42.148;24.744;2023-12-20T05:36:06;28.63;;;17.98;;
48951;SDS011;34758;42.148;24.744;2023-12-20T05:38:39;21.05;;;13.30;;
48951;SDS011;34758;42.148;24.744;2023-12-20T05:41:08;20.98;;;12.80;;
48951;SDS011;34758;42.148;24.744;2023-12-20T05:43:36;22.92;;;16.63;;
48951;SDS011;34758;42.148;24.744;2023-12-20T05:46:03;28.45;;;19.38;;
48951;SDS011;34758;42.148;24.744;2023-12-20T05:48:31;21.95;;;12.68;;
48951;SDS011;34758;42.148;24.744;2023-12-20T05:51:00;19.38;;;13.77;;
48951;SDS011;34758;42.148;24.744;2023-12-20T05:53:27;22.65;;;15.27;;
48951;SDS011;34758;42.148;24.744;2023-12-20T05:55:55;21.17;;;14.50;;
48951;SDS011;34758;42.148;24.744;2023-12-20T05:58:22;23.08;;;13.15;;
48951;SDS011;34758;42.148;24.744;2023-12-20T06:00:49;22.63;;;13.40;;
48951;SDS011;34758;42.148;24.744;2023-12-20T06:03:16;17.85;;;12.18;;
48951;SDS011;34758;42.148;24.744;2023-12-20T06:05:44;23.35;;;13.73;;
48951;SDS011;34758;42.148;24.744;2023-12-20T06:08:12;22.10;;;13.05;;
48951;SDS011;34758;42.148;24.744;2023-12-20T06:10:40;19.08;;;12.98;;
48951;SDS011;34758;42.148;24.744;2023-12-20T06:13:09;16.38;;;12.90;;
48951;SDS011;34758;42.148;24.744;2023-12-20T06:15:38;19.52;;;13.43;;
48951;SDS011;34758;42.148;24.744;2023-12-20T06:18:08;20.45;;;13.70;;
48951;SDS011;34758;42.148;24.744;2023-12-20T06:20:36;24.08;;;14.73;;
48951;SDS011;34758;42.148;24.744;2023-12-20T06:23:04;26.23;;;13.95;;
48951;SDS011;34758;42.148;24.744;2023-12-20T06:25:32;22.70;;;14.68;;
48951;SDS011;34758;42.148;24.744;2023-12-20T06:28:00;24.50;;;15.45;;
48951;SDS011;34758;42.148;24.744;2023-12-20T06:30:27;20.33;;;13.73;;
48951;SDS011;34758;42.148;24.744;2023-12-20T06:32:59;21.95;;;13.80;;
48951;SDS011;34758;42.148;24.744;2023-12-20T06:35:27;25.08;;;15.05;;
48951;SDS011;34758;42.148;24.744;2023-12-20T06:37:54;20.85;;;13.27;;
48951;SDS011;34758;42.148;24.744;2023-12-20T06:40:24;21.60;;;13.35;;
48951;SDS011;34758;42.148;24.744;2023-12-20T06:42:53;19.52;;;13.18;;
48951;SDS011;34758;42.148;24.744;2023-12-20T06:45:24;23.25;;;13.23;;
48951;SDS011;34758;42.148;24.744;2023-12-20T06:47:52;16.60;;;11.85;;
48951;SDS011;34758;42.148;24.744;2023-12-20T06:50:20;17.92;;;11.20;;
48951;SDS011;34758;42.148;24.744;2023-12-20T06:52:48;21.83;;;11.77;;
48951;SDS011;34758;42.148;24.744;2023-12-20T06:55:18;19.33;;;9.70;;
48951;SDS011;34758;42.148;24.744;2023-12-20T06:57:46;16.73;;;10.77;;
48951;SDS011;34758;42.148;24.744;2023-12-20T07:00:17;16.13;;;11.27;;
48951;SDS011;34758;42.148;24.744;2023-12-20T07:02:49;13.88;;;10.68;;
48951;SDS011;34758;42.148;24.744;2023-12-20T07:05:19;15.30;;;10.18;;
48951;SDS011;34758;42.148;24.744;2023-12-20T07:07:47;17.83;;;10.57;;
48951;SDS011;34758;42.148;24.744;2023-12-20T07:10:15;18.65;;;11.25;;
48951;SDS011;34758;42.148;24.744;2023-12-20T07:12:44;21.60;;;15.40;;
48951;SDS011;34758;42.148;24.744;2023-12-20T07:15:12;35.58;;;29.88;;
48951;SDS011;34758;42.148;24.744;2023-12-20T07:17:44;18.05;;;11.38;;
48951;SDS011;34758;42.148;24.744;2023-12-20T07:20:11;19.38;;;11.80;;
48951;SDS011;34758;42.148;24.744;2023-12-20T07:22:41;15.63;;;10.63;;
48951;SDS011;34758;42.148;24.744;2023-12-20T07:25:10;19.85;;;11.25;;
48951;SDS011;34758;42.148;24.744;2023-12-20T07:27:42;16.20;;;10.43;;
48951;SDS011;34758;42.148;24.744;2023-12-20T07:30:11;19.07;;;11.93;;
48951;SDS011;34758;42.148;24.744;2023-12-20T07:32:40;16.52;;;11.77;;
48951;SDS011;34758;42.148;24.744;2023-12-20T07:35:12;14.45;;;9.75;;
48951;SDS011;34758;42.148;24.744;2023-12-20T07:37:40;14.27;;;10.25;;
48951;SDS011;34758;42.148;24.744;2023-12-20T07:40:08;13.43;;;9.63;;
48951;SDS011;34758;42.148;24.744;2023-12-20T07:42:38;12.93;;;10.05;;
48951;SDS011;34758;42.148;24.744;2023-12-20T07:45:06;13.95;;;10.48;;
48951;SDS011;34758;42.148;24.744;2023-12-20T07:47:36;14.40;;;9.98;;
48951;SDS011;34758;42.148;24.744;2023-12-20T07:50:03;14.57;;;10.40;;
48951;SDS011;34758;42.148;24.744;2023-12-20T07:52:33;15.50;;;12.27;;
48951;SDS011;34758;42.148;24.744;2023-12-20T07:55:00;15.23;;;10.98;;
48951;SDS011;34758;42.148;24.744;2023-12-20T07:57:29;15.98;;;11.30;;
48951;SDS011;34758;42.148;24.744;2023-12-20T07:59:56;16.65;;;12.50;;
48951;SDS011;34758;42.148;24.744;2023-12-20T08:02:23;14.55;;;10.75;;
48951;SDS011;34758;42.148;24.744;2023-12-20T08:04:50;16.52;;;11.10;;
48951;SDS011;34758;42.148;24.744;2023-12-20T08:07:18;15.23;;;10.55;;
48951;SDS011;34758;42.148;24.744;2023-12-20T08:09:55;17.58;;;12.13;;
48951;SDS011;34758;42.148;24.744;2023-12-20T08:12:24;21.20;;;12.82;;
48951;SDS011;34758;42.148;24.744;2023-12-20T08:14:57;17.40;;;12.52;;
48951;SDS011;34758;42.148;24.744;2023-12-20T08:17:36;16.83;;;11.70;;
48951;SDS011;34758;42.148;24.744;2023-12-20T08:20:07;20.33;;;12.88;;
48951;SDS011;34758;42.148;24.744;2023-12-20T08:22:38;16.30;;;11.15;;
48951;SDS011;34758;42.148;24.744;2023-12-20T08:25:09;19.10;;;12.63;;
48951;SDS011;34758;42.148;24.744;2023-12-20T08:27:39;19.20;;;12.75;;
48951;SDS011;34758;42.148;24.744;2023-12-20T08:30:09;15.68;;;11.40;;
48951;SDS011;34758;42.148;24.744;2023-12-20T08:32:39;18.13;;;13.18;;
48951;SDS011;34758;42.148;24.744;2023-12-20T08:35:06;16.42;;;12.05;;
48951;SDS011;34758;42.148;24.744;2023-12-20T08:37:35;14.70;;;11.48;;
48951;SDS011;34758;42.148;24.744;2023-12-20T08:40:16;15.93;;;12.65;;
48951;SDS011;34758;42.148;24.744;2023-12-20T08:42:47;21.52;;;11.82;;
48951;SDS011;34758;42.148;24.744;2023-12-20T08:45:17;16.70;;;12.05;;
48951;SDS011;34758;42.148;24.744;2023-12-20T08:47:47;15.85;;;11.73;;
48951;SDS011;34758;42.148;24.744;2023-12-20T08:50:14;17.27;;;11.77;;
48951;SDS011;34758;42.148;24.744;2023-12-20T08:52:45;18.08;;;11.80;;
48951;SDS011;34758;42.148;24.744;2023-12-20T08:55:18;23.00;;;16.05;;
48951;SDS011;34758;42.148;24.744;2023-12-20T08:57:46;22.70;;;15.82;;
48951;SDS011;34758;42.148;24.744;2023-12-20T09:00:16;15.65;;;12.00;;
48951;SDS011;34758;42.148;24.744;2023-12-20T09:02:59;15.90;;;12.10;;
48951;SDS011;34758;42.148;24.744;2023-12-20T09:05:26;20.25;;;13.20;;
48951;SDS011;34758;42.148;24.744;2023-12-20T09:07:55;15.73;;;10.70;;
48951;SDS011;34758;42.148;24.744;2023-12-20T09:10:24;16.08;;;10.23;;
48951;SDS011;34758;42.148;24.744;2023-12-20T09:12:55;15.23;;;11.25;;
48951;SDS011;34758;42.148;24.744;2023-12-20T09:15:23;15.50;;;10.07;;
48951;SDS011;34758;42.148;24.744;2023-12-20T09:17:54;14.70;;;10.57;;
48951;SDS011;34758;42.148;24.744;2023-12-20T09:20:25;14.32;;;10.55;;
48951;SDS011;34758;42.148;24.744;2023-12-20T09:22:53;13.60;;;10.25;;
48951;SDS011;34758;42.148;24.744;2023-12-20T09:25:20;12.27;;;9.27;;
48951;SDS011;34758;42.148;24.744;2023-12-20T09:27:57;14.18;;;11.98;;
48951;SDS011;34758;42.148;24.744;2023-12-20T09:30:27;14.90;;;11.57;;
48951;SDS011;34758;42.148;24.744;2023-12-20T09:32:57;17.25;;;12.98;;
48951;SDS011;34758;42.148;24.744;2023-12-20T09:35:26;18.25;;;12.57;;
48951;SDS011;34758;42.148;24.744;2023-12-20T09:38:02;16.77;;;11.85;;
48951;SDS011;34758;42.148;24.744;2023-12-20T09:40:36;16.00;;;12.07;;
48951;SDS011;34758;42.148;24.744;2023-12-20T09:43:08;19.50;;;13.30;;
48951;SDS011;34758;42.148;24.744;2023-12-20T09:45:42;17.55;;;13.30;;
48951;SDS011;34758;42.148;24.744;2023-12-20T09:48:16;17.63;;;13.95;;
48951;SDS011;34758;42.148;24.744;2023-12-20T09:50:45;19.23;;;14.60;;
48951;SDS011;34758;42.148;24.744;2023-12-20T09:53:15;16.10;;;13.65;;
48951;SDS011;34758;42.148;24.744;2023-12-20T09:55:49;19.38;;;13.27;;
48951;SDS011;34758;42.148;24.744;2023-12-20T09:58:18;14.95;;;12.70;;
48951;SDS011;34758;42.148;24.744;2023-12-20T10:00:48;18.17;;;12.65;;
48951;SDS011;34758;42.148;24.744;2023-12-20T10:03:17;13.88;;;10.50;;
48951;SDS011;34758;42.148;24.744;2023-12-20T10:05:52;13.38;;;9.77;;
48951;SDS011;34758;42.148;24.744;2023-12-20T10:08:24;13.02;;;9.45;;
48951;SDS011;34758;42.148;24.744;2023-12-20T10:10:52;14.55;;;10.38;;
48951;SDS011;34758;42.148;24.744;2023-12-20T10:13:24;16.50;;;10.55;;
48951;SDS011;34758;42.148;24.744;2023-12-20T10:15:50;15.38;;;10.40;;
48951;SDS011;34758;42.148;24.744;2023-12-20T10:18:18;14.90;;;10.40;;
48951;SDS011;34758;42.148;24.744;2023-12-20T10:20:45;13.55;;;10.10;;
48951;SDS011;34758;42.148;24.744;2023-12-20T10:23:15;16.08;;;10.77;;
48951;SDS011;34758;42.148;24.744;2023-12-20T10:25:43;13.20;;;10.40;;
48951;SDS011;34758;42.148;24.744;2023-12-20T10:28:15;14.13;;;10.40;;
48951;SDS011;34758;42.148;24.744;2023-12-20T10:30:51;17.00;;;11.65;;
48951;SDS011;34758;42.148;24.744;2023-12-20T10:33:25;17.23;;;11.85;;
48951;SDS011;34758;42.148;24.744;2023-12-20T10:35:53;14.80;;;10.55;;
48951;SDS011;34758;42.148;24.744;2023-12-20T10:38:22;19.48;;;11.65;;
48951;SDS011;34758;42.148;24.744;2023-12-20T10:40:53;15.88;;;10.32;;
48951;SDS011;34758;42.148;24.744;2023-12-20T10:43:24;15.30;;;11.60;;
48951;SDS011;34758;42.148;24.744;2023-12-20T10:45:53;18.27;;;11.65;;
48951;SDS011;34758;42.148;24.744;2023-12-20T10:48:23;18.58;;;12.02;;
48951;SDS011;34758;42.148;24.744;2023-12-20T10:50:56;20.20;;;12.75;;
48951;SDS011;34758;42.148;24.744;2023-12-20T10:53:24;21.40;;;13.25;;
48951;SDS011;34758;42.148;24.744;2023-12-20T10:55:55;17.23;;;12.27;;
48951;SDS011;34758;42.148;24.744;2023-12-20T10:58:26;22.15;;;12.02;;
48951;SDS011;34758;42.148;24.744;2023-12-20T11:00:59;19.75;;;11.40;;
48951;SDS011;34758;42.148;24.744;2023-12-20T11:03:31;18.55;;;11.88;;
48951;SDS011;34758;42.148;24.744;2023-12-20T11:06:06;15.57;;;11.48;;
48951;SDS011;34758;42.148;24.744;2023-12-20T11:08:39;25.98;;;12.50;;
48951;SDS011;34758;42.148;24.744;2023-12-20T11:11:17;18.35;;;11.23;;
48951;SDS011;34758;42.148;24.744;2023-12-20T11:13:56;17.63;;;11.55;;
48951;SDS011;34758;42.148;24.744;2023-12-20T11:16:31;15.55;;;10.52;;
48951;SDS011;34758;42.148;24.744;2023-12-20T11:19:06;15.07;;;10.70;;
48951;SDS011;34758;42.148;24.744;2023-12-20T11:21:37;14.63;;;10.93;;
48951;SDS011;34758;42.148;24.744;2023-12-20T11:24:05;16.58;;;11.43;;
48951;SDS011;34758;42.148;24.744;2023-12-20T11:26:46;19.63;;;13.35;;
48951;SDS011;34758;42.148;24.744;2023-12-20T11:29:30;18.63;;;12.30;;
48951;SDS011;34758;42.148;24.744;2023-12-20T11:32:02;17.88;;;12.27;;
48951;SDS011;34758;42.148;24.744;2023-12-20T11:34:47;17.30;;;12.02;;
48951;SDS011;34758;42.148;24.744;2023-12-20T11:37:15;16.10;;;11.48;;
48951;SDS011;34758;42.148;24.744;2023-12-20T11:39:53;15.00;;;10.85;;
48951;SDS011;34758;42.148;24.744;2023-12-20T11:42:27;19.40;;;13.05;;
48951;SDS011;34758;42.148;24.744;2023-12-20T11:45:01;24.67;;;13.90;;
48951;SDS011;34758;42.148;24.744;2023-12-20T11:47:34;21.38;;;14.85;;
48951;SDS011;34758;42.148;24.744;2023-12-20T11:50:02;20.50;;;13.43;;
48951;SDS011;34758;42.148;24.744;2023-12-20T11:52:39;20.00;;;12.93;;
48951;SDS011;34758;42.148;24.744;2023-12-20T11:55:07;22.40;;;13.05;;
48951;SDS011;34758;42.148;24.744;2023-12-20T11:57:36;21.77;;;14.65;;
48951;SDS011;34758;42.148;24.744;2023-12-20T12:00:04;25.40;;;14.75;;
48951;SDS011;34758;42.148;24.744;2023-12-20T12:02:37;23.13;;;14.73;;
48951;SDS011;34758;42.148;24.744;2023-12-20T12:05:12;22.70;;;15.27;;
48951;SDS011;34758;42.148;24.744;2023-12-20T12:07:40;24.30;;;14.98;;
48951;SDS011;34758;42.148;24.744;2023-12-20T12:10:07;23.60;;;15.50;;
48951;SDS011;34758;42.148;24.744;2023-12-20T12:12:52;36.70;;;19.58;;
48951;SDS011;34758;42.148;24.744;2023-12-20T12:15:20;27.17;;;18.83;;
48951;SDS011;34758;42.148;24.744;2023-12-20T12:18:01;52.33;;;24.60;;
48951;SDS011;34758;42.148;24.744;2023-12-20T12:20:42;34.03;;;21.47;;
48951;SDS011;34758;42.148;24.744;2023-12-20T12:23:23;50.80;;;28.77;;
48951;SDS011;34758;42.148;24.744;2023-12-20T12:25:59;50.42;;;29.70;;
48951;SDS011;34758;42.148;24.744;2023-12-20T12:28:30;73.82;;;37.83;;
48951;SDS011;34758;42.148;24.744;2023-12-20T12:31:03;30.25;;;19.92;;
48951;SDS011;34758;42.148;24.744;2023-12-20T12:33:50;30.73;;;19.63;;
48951;SDS011;34758;42.148;24.744;2023-12-20T12:36:17;48.92;;;26.88;;
48951;SDS011;34758;42.148;24.744;2023-12-20T12:38:51;51.83;;;29.98;;
48951;SDS011;34758;42.148;24.744;2023-12-20T12:41:22;54.25;;;31.48;;
48951;SDS011;34758;42.148;24.744;2023-12-20T12:43:51;51.42;;;30.88;;
48951;SDS011;34758;42.148;24.744;2023-12-20T12:46:23;46.97;;;28.58;;
48951;SDS011;34758;42.148;24.744;2023-12-20T12:49:00;39.63;;;24.60;;
48951;SDS011;34758;42.148;24.744;2023-12-20T12:51:29;49.20;;;29.02;;
48951;SDS011;34758;42.148;24.744;2023-12-20T12:54:13;37.83;;;25.05;;
48951;SDS011;34758;42.148;24.744;2023-12-20T12:56:42;38.85;;;26.80;;
48951;SDS011;34758;42.148;24.744;2023-12-20T12:59:14;50.33;;;29.85;;
48951;SDS011;34758;42.148;24.744;2023-12-20T13:01:44;48.37;;;28.03;;
48951;SDS011;34758;42.148;24.744;2023-12-20T13:04:15;39.60;;;25.35;;
48951;SDS011;34758;42.148;24.744;2023-12-20T13:06:43;46.45;;;28.33;;
48951;SDS011;34758;42.148;24.744;2023-12-20T13:09:16;53.00;;;32.45;;
48951;SDS011;34758;42.148;24.744;2023-12-20T13:11:45;85.03;;;44.35;;
48951;SDS011;34758;42.148;24.744;2023-12-20T13:14:12;66.72;;;37.17;;
48951;SDS011;34758;42.148;24.744;2023-12-20T13:19:15;58.58;;;33.53;;
48951;SDS011;34758;42.148;24.744;2023-12-20T13:21:46;61.53;;;36.90;;
48951;SDS011;34758;42.148;24.744;2023-12-20T13:24:18;51.17;;;30.70;;
48951;SDS011;34758;42.148;24.744;2023-12-20T13:26:45;65.53;;;36.10;;
48951;SDS011;34758;42.148;24.744;2023-12-20T13:29:14;50.80;;;30.23;;
48951;SDS011;34758;42.148;24.744;2023-12-20T13:31:44;62.20;;;36.28;;
48951;SDS011;34758;42.148;24.744;2023-12-20T13:34:19;56.00;;;36.00;;
48951;SDS011;34758;42.148;24.744;2023-12-20T13:36:46;45.72;;;29.27;;
48951;SDS011;34758;42.148;24.744;2023-12-20T13:39:16;53.60;;;31.10;;
48951;SDS011;34758;42.148;24.744;2023-12-20T13:41:46;42.90;;;26.95;;
48951;SDS011;34758;42.148;24.744;2023-12-20T13:44:13;40.00;;;27.40;;
48951;SDS011;34758;42.148;24.744;2023-12-20T13:46:43;50.80;;;31.55;;
48951;SDS011;34758;42.148;24.744;2023-12-20T13:49:13;50.65;;;31.00;;
48951;SDS011;34758;42.148;24.744;2023-12-20T13:51:41;47.60;;;31.73;;
48951;SDS011;34758;42.148;24.744;2023-12-20T13:54:08;59.03;;;35.22;;
48951;SDS011;34758;42.148;24.744;2023-12-20T13:56:37;60.60;;;38.78;;
48951;SDS011;34758;42.148;24.744;2023-12-20T13:59:07;48.45;;;31.10;;
48951;SDS011;34758;42.148;24.744;2023-12-20T14:01:35;48.80;;;30.10;;
48951;SDS011;34758;42.148;24.744;2023-12-20T14:04:05;57.85;;;37.05;;
48951;SDS011;34758;42.148;24.744;2023-12-20T14:06:44;60.65;;;39.30;;
48951;SDS011;34758;42.148;24.744;2023-12-20T14:09:16;50.30;;;33.42;;
48951;SDS011;34758;42.148;24.744;2023-12-20T14:11:47;63.22;;;36.97;;
48951;SDS011;34758;42.148;24.744;2023-12-20T14:14:25;59.38;;;33.42;;
48951;SDS011;34758;42.148;24.744;2023-12-20T14:17:01;52.83;;;35.40;;
48951;SDS011;34758;42.148;24.744;2023-12-20T14:19:29;53.17;;;27.60;;
48951;SDS011;34758;42.148;24.744;2023-12-20T14:22:07;41.88;;;24.85;;
48951;SDS011;34758;42.148;24.744;2023-12-20T14:24:35;47.33;;;24.98;;
48951;SDS011;34758;42.148;24.744;2023-12-20T14:27:05;49.25;;;31.15;;
48951;SDS011;34758;42.148;24.744;2023-12-20T14:29:32;38.00;;;25.10;;
48951;SDS011;34758;42.148;24.744;2023-12-20T14:32:00;40.92;;;25.73;;